createdAt,value
2022-11-27T00:02:08.283Z,98249.88
2022-11-27T00:06:09.982Z,98272.72
2022-11-27T00:10:12.364Z,98260.84
2022-11-27T00:14:18.917Z,98267.31
2022-11-27T00:18:19.596Z,98265.16
2022-11-27T00:22:20.036Z,98256.03
2022-11-27T00:26:20.974Z,98247.28
2022-11-27T00:30:23.813Z,98246.47
2022-11-27T00:34:23.902Z,98229.22
2022-11-27T00:38:24.440Z,98215.66
2022-11-27T00:42:24.573Z,98247.44
2022-11-27T00:46:30.145Z,98235.63
2022-11-27T00:50:32.063Z,98235.78
2022-11-27T00:54:32.169Z,98233.13
2022-11-27T00:58:32.659Z,98229.88
2022-11-27T01:02:35.638Z,98238.59
2022-11-27T01:06:36.242Z,98225.13
2022-11-27T01:10:36.751Z,98225.53
2022-11-27T01:14:37.669Z,98203.03
2022-11-27T01:18:44.195Z,98214.09
2022-11-27T01:22:44.314Z,98225.00
2022-11-27T01:26:45.215Z,98234.38
2022-11-27T01:30:45.782Z,98239.38
2022-11-27T01:34:48.577Z,98234.81
2022-11-27T01:38:48.656Z,98227.91
2022-11-27T01:42:48.771Z,98212.34
2022-11-27T01:46:53.145Z,98221.38
2022-11-27T01:50:56.527Z,98222.25
2022-11-27T01:55:02.631Z,98212.88
2022-11-27T01:59:03.706Z,98220.63
2022-11-27T02:03:04.116Z,98215.91
2022-11-27T02:07:06.938Z,98195.13
2022-11-27T02:11:15.761Z,98198.16
2022-11-27T02:15:25.275Z,98162.28
2022-11-27T02:19:43.637Z,98163.53
2022-11-27T02:24:30.206Z,98162.66
2022-11-27T02:28:47.449Z,98152.03
2022-11-27T02:32:59.936Z,98157.72
2022-11-27T02:37:09.767Z,98149.75
2022-11-27T02:41:17.374Z,98147.56
2022-11-27T02:45:24.835Z,98147.09
2022-11-27T02:49:28.836Z,98149.75
2022-11-27T02:53:38.017Z,98161.38
2022-11-27T02:57:42.347Z,98150.16
2022-11-27T03:01:48.711Z,98125.94
2022-11-27T03:05:58.160Z,98129.69
2022-11-27T03:10:05.963Z,98151.25
2022-11-27T03:14:11.091Z,98156.72
2022-11-27T03:18:25.466Z,98100.38
2022-11-27T03:22:29.154Z,98133.59
2022-11-27T03:26:29.655Z,98146.59
2022-11-27T03:30:30.097Z,98158.25
2022-11-27T03:34:31.149Z,98145.97
2022-11-27T03:38:33.875Z,98141.25
2022-11-27T03:42:46.632Z,98144.09
2022-11-27T03:47:01.420Z,98146.34
2022-11-27T03:51:13.019Z,98140.53
2022-11-27T03:55:26.662Z,98137.63
2022-11-27T03:59:33.390Z,98130.34
2022-11-27T04:03:34.065Z,98116.69
2022-11-27T04:07:34.259Z,98117.44
2022-11-27T04:11:37.094Z,98099.53
2022-11-27T04:15:37.288Z,98128.53
2022-11-27T04:19:37.698Z,98123.78
2022-11-27T04:23:38.566Z,98132.34
2022-11-27T04:27:41.379Z,98128.63
2022-11-27T04:31:41.489Z,98110.00
2022-11-27T04:35:41.635Z,98123.25
2022-11-27T04:39:41.793Z,98125.09
2022-11-27T04:43:44.838Z,98114.38
2022-11-27T04:47:45.114Z,98128.53
2022-11-27T04:51:45.939Z,98113.63
2022-11-27T04:55:46.174Z,98125.25
2022-11-27T04:59:48.860Z,98138.78
2022-11-27T05:03:51.009Z,98125.75
2022-11-27T05:07:51.155Z,98109.88
2022-11-27T05:11:51.457Z,98101.63
2022-11-27T05:15:54.113Z,98119.97
2022-11-27T05:19:54.532Z,98117.81
2022-11-27T05:23:54.576Z,98131.16
2022-11-27T05:27:55.759Z,98115.41
2022-11-27T05:31:58.443Z,98132.16
2022-11-27T05:35:58.623Z,98135.94
2022-11-27T05:39:59.025Z,98130.88
2022-11-27T05:43:59.180Z,98123.19
2022-11-27T05:48:01.952Z,98128.81
2022-11-27T05:52:02.115Z,98132.00
2022-11-27T05:56:05.691Z,98123.50
2022-11-27T06:00:07.314Z,98134.38
2022-11-27T06:04:10.010Z,98136.03
2022-11-27T06:08:10.508Z,98130.97
2022-11-27T06:12:11.352Z,98115.50
2022-11-27T06:16:16.986Z,98110.56
2022-11-27T06:20:20.453Z,98116.53
2022-11-27T06:24:20.587Z,98121.44
2022-11-27T06:28:20.727Z,98122.81
2022-11-27T06:32:20.817Z,98125.84
2022-11-27T06:36:28.157Z,98122.34
2022-11-27T06:40:28.426Z,98122.69
2022-11-27T06:44:28.677Z,98092.69
2022-11-27T06:48:29.293Z,98098.25
2022-11-27T06:52:34.678Z,98115.72
2022-11-27T06:56:38.915Z,98104.88
2022-11-27T07:00:39.295Z,98114.00
2022-11-27T07:04:40.548Z,98130.06
2022-11-27T07:08:44.299Z,98107.44
2022-11-27T07:12:44.372Z,98125.69
2022-11-27T07:16:44.610Z,98097.81
2022-11-27T07:20:44.744Z,98108.34
2022-11-27T07:24:47.473Z,98109.69
2022-11-27T07:28:48.672Z,98097.53
2022-11-27T07:32:48.805Z,98098.88
2022-11-27T07:36:49.140Z,98097.88
2022-11-27T07:40:53.903Z,98084.31
2022-11-27T07:44:54.246Z,98055.47
2022-11-27T07:48:54.748Z,98079.47
2022-11-27T07:52:54.806Z,98077.19
2022-11-27T07:56:57.440Z,98061.34
2022-11-27T08:00:57.623Z,98073.84
2022-11-27T08:04:57.894Z,98075.31
2022-11-27T08:08:58.775Z,98052.56
2022-11-27T08:13:01.739Z,98057.91
2022-11-27T08:17:02.069Z,98043.03
2022-11-27T08:21:03.688Z,98054.59
2022-11-27T08:25:03.958Z,98037.50
2022-11-27T08:29:06.731Z,98056.00
2022-11-27T08:33:07.024Z,98052.66
2022-11-27T08:37:07.369Z,98042.06
2022-11-27T08:41:10.529Z,98042.75
2022-11-27T08:45:13.910Z,98035.81
2022-11-27T08:49:27.769Z,98055.84
2022-11-27T08:53:28.052Z,98045.75
2022-11-27T08:57:28.660Z,98033.66
2022-11-27T09:01:32.179Z,98043.03
2022-11-27T09:05:35.523Z,98039.63
2022-11-27T09:09:35.975Z,98036.72
2022-11-27T09:13:37.315Z,98043.78
2022-11-27T09:17:37.433Z,98032.53
2022-11-27T09:21:40.496Z,98020.13
2022-11-27T09:25:42.087Z,98041.34
2022-11-27T09:29:42.271Z,98045.63
2022-11-27T09:33:44.358Z,98017.78
2022-11-27T09:37:47.047Z,98030.91
2022-11-27T09:41:52.231Z,98012.91
2022-11-27T09:45:58.092Z,98010.19
2022-11-27T09:50:05.917Z,98014.75
2022-11-27T09:54:18.394Z,98025.84
2022-11-27T09:58:24.659Z,98017.31
2022-11-27T10:02:33.533Z,98009.91
2022-11-27T10:06:41.507Z,98007.88
2022-11-27T10:11:03.148Z,97998.97
2022-11-27T10:15:13.424Z,97985.38
2022-11-27T10:19:33.663Z,97970.06
2022-11-27T10:23:48.773Z,97973.94
2022-11-27T10:28:07.612Z,97953.72
2022-11-27T10:32:46.966Z,97943.72
2022-11-27T10:36:44.864Z,97935.25
2022-11-27T10:40:54.920Z,97955.28
2022-11-27T10:45:05.709Z,97949.16
2022-11-27T10:49:05.996Z,97951.47
2022-11-27T10:53:12.308Z,97941.13
2022-11-27T10:57:43.235Z,97948.63
2022-11-27T11:06:28.600Z,97764.59
2022-11-27T11:11:16.436Z,97703.56
2022-11-27T11:15:25.051Z,97876.06
2022-11-27T11:19:41.444Z,97801.25
2022-11-27T11:23:56.259Z,97889.69
2022-11-27T11:27:56.888Z,97895.16
2022-11-27T11:32:02.217Z,97893.56
2022-11-27T11:36:14.252Z,97889.66
2022-11-27T11:40:27.515Z,97873.00
2022-11-27T11:44:35.527Z,97884.56
2022-11-27T11:48:43.449Z,97893.81
2022-11-27T11:53:02.154Z,97883.63
2022-11-27T11:57:13.541Z,97767.53
2022-11-27T12:01:54.318Z,97870.97
2022-11-27T12:06:18.384Z,97848.59
2022-11-27T12:10:30.612Z,97860.19
2022-11-27T12:14:46.781Z,97844.69
2022-11-27T12:19:19.148Z,97853.88
2022-11-27T12:23:56.380Z,97829.41
2022-11-27T12:28:25.051Z,97831.84
2022-11-27T12:32:53.413Z,97800.50
2022-11-27T12:37:31.159Z,97788.28
2022-11-27T12:42:00.663Z,97779.72
2022-11-27T12:46:13.023Z,97793.56
2022-11-27T12:50:23.963Z,97787.69
2022-11-27T12:54:30.611Z,97786.25
2022-11-27T12:58:37.015Z,97783.81
2022-11-27T13:02:49.308Z,97756.13
2022-11-27T13:07:01.429Z,97780.13
2022-11-27T13:11:09.489Z,97770.34
2022-11-27T13:15:24.099Z,97754.09
2022-11-27T13:19:35.421Z,97762.22
2022-11-27T13:23:36.831Z,97759.16
2022-11-27T13:27:40.497Z,97745.75
2022-11-27T13:31:42.152Z,97749.38
2022-11-27T13:35:46.161Z,97768.75
2022-11-27T13:39:47.373Z,97753.25
2022-11-27T13:43:50.580Z,97725.59
2022-11-27T13:47:53.170Z,97756.53
2022-11-27T13:52:16.439Z,97739.63
2022-11-27T13:56:19.239Z,97708.91
2022-11-27T14:00:20.847Z,97668.19
2022-11-27T14:04:21.028Z,97720.28
2022-11-27T14:08:31.918Z,97673.09
2022-11-27T14:12:36.195Z,97723.34
2022-11-27T14:16:39.643Z,97690.59
2022-11-27T14:20:50.811Z,97693.44
2022-11-27T14:24:57.892Z,97677.97
2022-11-27T14:29:00.537Z,97719.50
2022-11-27T14:33:00.870Z,97687.75
2022-11-27T14:37:02.545Z,97706.47
2022-11-27T14:41:20.033Z,97700.78
2022-11-27T14:45:23.988Z,97708.31
2022-11-27T14:49:30.977Z,97708.50
2022-11-27T14:53:32.129Z,97696.28
2022-11-27T14:57:35.142Z,97687.13
2022-11-27T15:01:37.795Z,97683.25
2022-11-27T15:05:41.200Z,97684.03
2022-11-27T15:09:47.393Z,97651.50
2022-11-27T15:13:56.971Z,97656.00
2022-11-27T15:18:01.780Z,97637.06
2022-11-27T15:22:02.520Z,97635.88
2022-11-27T15:26:19.927Z,97650.25
2022-11-27T15:30:26.152Z,97642.94
2022-11-27T15:34:30.082Z,97643.00
2022-11-27T15:38:30.278Z,97627.91
2022-11-27T15:42:31.234Z,97643.16
2022-11-27T15:46:38.255Z,97628.75
2022-11-27T15:50:38.392Z,97634.81
2022-11-27T15:54:38.598Z,97638.28
2022-11-27T15:58:38.867Z,97638.50
2022-11-27T16:02:42.441Z,97642.75
2022-11-27T16:06:42.645Z,97630.16
2022-11-27T16:10:43.758Z,97618.16
2022-11-27T16:14:43.933Z,97637.69
2022-11-27T16:18:46.949Z,97637.28
2022-11-27T16:22:47.083Z,97632.59
2022-11-27T16:26:50.099Z,97623.88
2022-11-27T16:30:50.259Z,97620.22
2022-11-27T16:34:53.276Z,97603.94
2022-11-27T16:38:55.991Z,97602.31
2022-11-27T16:42:57.812Z,97577.50
2022-11-27T16:46:58.203Z,97561.44
2022-11-27T16:51:06.170Z,97549.84
2022-11-27T16:55:06.652Z,97523.41
2022-11-27T16:59:11.584Z,97522.56
2022-11-27T17:03:11.866Z,97513.16
2022-11-27T17:07:14.583Z,97511.13
2022-11-27T17:11:17.335Z,97490.88
2022-11-27T17:15:17.519Z,97492.81
2022-11-27T17:19:18.802Z,97479.84
2022-11-27T17:23:21.507Z,97475.97
2022-11-27T17:27:21.746Z,97476.22
2022-11-27T17:31:24.752Z,97459.28
2022-11-27T17:35:25.287Z,97460.69
2022-11-27T17:39:28.964Z,97459.94
2022-11-27T17:43:30.506Z,97446.06
2022-11-27T17:47:30.616Z,97447.34
2022-11-27T17:51:34.185Z,97444.94
2022-11-27T17:55:37.071Z,97457.16
2022-11-27T17:59:37.429Z,97449.88
2022-11-27T18:03:37.962Z,97466.03
2022-11-27T18:07:38.174Z,97453.78
2022-11-27T18:11:41.973Z,97458.22
2022-11-27T18:15:44.146Z,97458.28
2022-11-27T18:19:44.325Z,97474.91
2022-11-27T18:24:20.565Z,97470.69
2022-11-27T18:28:10.149Z,97456.38
2022-11-27T18:32:10.985Z,97461.66
2022-11-27T18:36:13.306Z,97445.13
2022-11-27T18:40:14.756Z,97421.91
2022-11-27T18:44:18.478Z,97424.06
2022-11-27T18:48:18.621Z,97420.00
2022-11-27T18:52:19.007Z,97424.69
2022-11-27T18:56:22.660Z,97406.34
2022-11-27T19:00:25.749Z,97408.03
2022-11-27T19:04:26.215Z,97429.47
2022-11-27T19:08:27.012Z,97384.63
2022-11-27T19:12:27.586Z,97425.88
2022-11-27T19:16:34.134Z,97395.31
2022-11-27T19:20:34.453Z,97407.94
2022-11-27T19:24:34.677Z,97384.47
2022-11-27T19:28:35.036Z,97366.34
2022-11-27T19:32:38.125Z,97358.00
2022-11-27T19:36:39.100Z,97370.00
2022-11-27T19:40:41.580Z,97385.75
2022-11-27T19:44:42.495Z,97374.94
2022-11-27T19:48:45.839Z,97360.53
2022-11-27T19:52:46.323Z,97355.69
2022-11-27T19:56:46.747Z,97360.91
2022-11-27T20:00:47.180Z,97343.91
2022-11-27T20:04:50.582Z,97339.00
2022-11-27T20:08:53.255Z,97339.31
2022-11-27T20:12:54.488Z,97332.72
2022-11-27T20:16:54.859Z,97334.16
2022-11-27T20:21:08.512Z,97321.03
2022-11-27T20:25:19.610Z,97314.72
2022-11-27T20:29:20.912Z,97328.78
2022-11-27T20:33:21.071Z,97325.94
2022-11-27T20:37:23.775Z,97300.44
2022-11-27T20:41:26.621Z,97294.50
2022-11-27T20:45:29.079Z,97302.59
2022-11-27T20:49:29.272Z,97292.31
2022-11-27T20:53:31.963Z,97295.59
2022-11-27T20:57:32.067Z,97295.69
2022-11-27T21:01:35.520Z,97284.47
2022-11-27T21:05:36.146Z,97285.44
2022-11-27T21:09:40.071Z,97282.31
2022-11-27T21:13:41.696Z,97279.00
2022-11-27T21:17:42.161Z,97266.19
2022-11-27T21:21:42.584Z,97259.22
2022-11-27T21:25:45.480Z,97257.94
2022-11-27T21:29:46.367Z,97257.72
2022-11-27T21:33:51.968Z,97232.72
2022-11-27T21:37:52.103Z,97248.94
2022-11-27T21:41:57.788Z,97250.81
2022-11-27T21:45:58.971Z,97249.69
2022-11-27T21:49:59.369Z,97243.75
2022-11-27T21:54:01.420Z,97223.84
2022-11-27T21:58:04.207Z,97217.34
2022-11-27T22:02:04.637Z,97208.53
2022-11-27T22:06:12.612Z,97196.59
2022-11-27T22:10:14.638Z,97221.03
2022-11-27T22:14:19.161Z,97216.50
2022-11-27T22:18:19.346Z,97205.38
2022-11-27T22:22:19.692Z,97179.25
2022-11-27T22:26:23.047Z,97189.88
2022-11-27T22:30:29.497Z,97191.72
2022-11-27T22:34:29.608Z,97166.66
2022-11-27T22:38:29.702Z,97156.16
2022-11-27T22:42:30.260Z,97177.50
2022-11-27T22:46:36.959Z,97142.78
2022-11-27T22:50:37.113Z,97166.94
2022-11-27T22:54:37.281Z,97168.25
2022-11-27T22:58:41.630Z,97160.03
2022-11-27T23:02:44.802Z,97169.34
2022-11-27T23:06:47.481Z,97161.13
2022-11-27T23:10:48.709Z,97150.03
2022-11-27T23:14:48.778Z,97153.13
2022-11-27T23:18:52.973Z,97128.88
2022-11-27T23:22:53.184Z,97151.22
2022-11-27T23:26:53.408Z,97155.34
2022-11-27T23:31:15.344Z,97137.56
2022-11-27T23:35:16.287Z,97131.09
2022-11-27T23:39:17.116Z,97126.81
2022-11-27T23:43:17.216Z,97134.03
2022-11-27T23:47:17.242Z,97123.09
2022-11-27T23:51:23.590Z,97117.47
2022-11-27T23:55:23.726Z,97119.59
2022-11-27T23:59:23.798Z,97112.16
